Terminal Aerodrome Forecast
Issued by NWS

Home | Current Version | Previous Version | Text Only | Print | Product List | Glossary On
Versions: 1 2 3 4 5 6 7 8 9 10 11 12 13
000
FTUS45 KRIW 022300
TAFCOD
TAF
KCOD 022330Z 0300/0324 20007KT P6SM SKC
     FM031700 19007KT P6SM FEW120 SCT180
     FM032000 02014KT P6SM SCT080 BKN150
      AMD LTD TO CLD VIS AND WIND=

USA.gov is the U.S. government's official web portal to all federal, state and local government web resources and services.